createdAt,value
2022-12-20T00:01:17.431Z,82.24
2022-12-20T00:06:24.183Z,82.52
2022-12-20T00:11:30.064Z,82.09
2022-12-20T00:16:33.327Z,82.43
2022-12-20T00:21:38.307Z,82.06
2022-12-20T00:26:43.152Z,81.68
2022-12-20T00:31:46.510Z,81.54
2022-12-20T00:36:49.833Z,81.90
2022-12-20T00:41:54.521Z,81.62
2022-12-20T00:46:57.919Z,81.55
2022-12-20T00:52:01.299Z,81.98
2022-12-20T00:57:05.913Z,81.23
2022-12-20T01:02:09.167Z,82.03
2022-12-20T01:07:12.597Z,81.80
2022-12-20T01:12:17.250Z,82.12
2022-12-20T01:17:20.972Z,82.03
2022-12-20T01:22:24.236Z,82.00
2022-12-20T01:27:30.028Z,82.41
2022-12-20T01:32:33.387Z,82.17
2022-12-20T01:37:36.803Z,82.59
2022-12-20T01:42:41.421Z,82.62
2022-12-20T01:47:44.701Z,82.58
2022-12-20T01:52:49.220Z,82.76
2022-12-20T01:58:00.063Z,82.44
2022-12-20T02:03:08.260Z,82.03
2022-12-20T02:08:14.804Z,81.59
2022-12-20T02:13:33.612Z,81.43
2022-12-20T02:18:44.758Z,81.79
2022-12-20T02:24:32.168Z,81.65
2022-12-20T02:29:39.757Z,81.76
2022-12-20T02:34:44.775Z,81.78
2022-12-20T02:39:48.704Z,81.71
2022-12-20T02:45:16.827Z,81.85
2022-12-20T02:50:26.652Z,81.81
2022-12-20T02:55:40.114Z,81.83
2022-12-20T03:00:48.421Z,81.60
2022-12-20T03:05:55.097Z,81.26
2022-12-20T03:10:58.508Z,81.43
2022-12-20T03:16:01.964Z,81.72
2022-12-20T03:21:07.036Z,81.41
2022-12-20T03:26:10.540Z,80.82
2022-12-20T03:31:13.897Z,80.71
2022-12-20T03:36:23.664Z,80.44
2022-12-20T03:41:27.399Z,80.11
2022-12-20T03:46:30.663Z,79.83
2022-12-20T03:51:35.458Z,79.43
2022-12-20T03:56:38.963Z,78.58
2022-12-20T04:01:42.345Z,78.60
2022-12-20T04:06:47.074Z,78.15
2022-12-20T04:11:50.377Z,77.70
2022-12-20T04:16:53.665Z,77.86
2022-12-20T04:22:04.719Z,77.70
2022-12-20T04:27:08.682Z,77.10
2022-12-20T04:32:12.141Z,76.65
2022-12-20T04:37:16.758Z,76.11
2022-12-20T04:42:20.231Z,76.18
2022-12-20T04:47:23.710Z,75.31
2022-12-20T04:52:48.224Z,74.46
2022-12-20T04:57:52.949Z,74.29
2022-12-20T05:02:56.680Z,74.07
2022-12-20T05:08:01.606Z,73.55
2022-12-20T05:13:09.219Z,73.47
2022-12-20T05:18:12.799Z,73.42
2022-12-20T05:23:46.333Z,73.07
2022-12-20T05:28:49.775Z,73.05
2022-12-20T05:33:53.275Z,72.67
2022-12-20T05:39:03.578Z,72.84
2022-12-20T05:44:09.023Z,72.58
2022-12-20T05:49:12.276Z,72.34
2022-12-20T05:54:17.972Z,72.65
2022-12-20T05:59:21.347Z,72.37
2022-12-20T06:04:24.598Z,72.24
2022-12-20T06:09:30.371Z,71.61
2022-12-20T06:14:34.259Z,72.08
2022-12-20T06:19:37.855Z,71.83
2022-12-20T06:24:48.013Z,72.20
2022-12-20T06:29:54.720Z,71.47
2022-12-20T06:34:58.353Z,71.98
2022-12-20T06:40:03.748Z,71.28
2022-12-20T06:45:08.102Z,71.25
2022-12-20T06:50:11.453Z,71.13
2022-12-20T06:55:16.530Z,70.98
2022-12-20T07:00:20.977Z,70.58
2022-12-20T07:05:24.407Z,70.52
2022-12-20T07:10:29.011Z,69.83
2022-12-20T07:15:32.750Z,69.74
2022-12-20T07:20:36.182Z,69.94
2022-12-20T07:25:41.384Z,69.61
2022-12-20T07:30:44.593Z,68.35
2022-12-20T07:35:54.009Z,68.40
2022-12-20T07:40:59.255Z,65.86
2022-12-20T07:46:03.733Z,62.14
2022-12-20T07:51:11.176Z,59.20
2022-12-20T07:56:17.168Z,57.80
2022-12-20T08:01:22.161Z,56.66
2022-12-20T08:06:25.484Z,56.79
2022-12-20T08:11:31.810Z,54.68
2022-12-20T08:16:35.201Z,52.82
2022-12-20T08:21:38.596Z,51.02
2022-12-20T08:26:43.358Z,51.48
2022-12-20T08:31:50.328Z,55.12
2022-12-20T08:36:54.183Z,53.22
2022-12-20T08:41:58.867Z,51.38
2022-12-20T08:47:02.132Z,51.97
2022-12-20T08:52:05.448Z,50.19
2022-12-20T08:57:10.699Z,47.99
2022-12-20T09:02:14.591Z,46.34
2022-12-20T09:07:18.171Z,45.17
2022-12-20T09:12:23.697Z,45.02
2022-12-20T09:17:27.115Z,44.85
2022-12-20T09:22:30.956Z,44.04
2022-12-20T09:27:35.591Z,42.96
2022-12-20T09:32:38.850Z,41.25
2022-12-20T09:37:42.137Z,40.47
2022-12-20T09:42:47.902Z,39.24
2022-12-20T09:47:52.396Z,39.88
2022-12-20T09:53:18.341Z,39.91
2022-12-20T09:58:37.618Z,38.37
2022-12-20T10:03:41.069Z,37.32
2022-12-20T10:08:47.976Z,37.46
2022-12-20T10:14:05.865Z,36.58
2022-12-20T10:19:22.994Z,34.48
2022-12-20T10:24:30.584Z,35.19
2022-12-20T10:29:35.293Z,34.60
2022-12-20T10:34:48.631Z,35.97
2022-12-20T10:39:54.804Z,36.89
2022-12-20T10:44:59.984Z,38.54
2022-12-20T10:50:18.371Z,39.24
2022-12-20T10:55:36.843Z,39.95
2022-12-20T11:00:42.166Z,40.62
2022-12-20T11:05:56.579Z,41.18
2022-12-20T11:11:14.460Z,40.26
2022-12-20T11:16:41.821Z,42.79
2022-12-20T11:21:54.089Z,44.89
2022-12-20T11:27:15.734Z,46.86
2022-12-20T11:32:31.970Z,46.70
2022-12-20T11:37:43.239Z,49.65
2022-12-20T11:42:59.235Z,51.96
2022-12-20T11:48:38.484Z,53.99
2022-12-20T11:53:47.026Z,55.87
2022-12-20T11:58:54.665Z,57.64
2022-12-20T12:04:11.583Z,59.03
2022-12-20T12:09:23.291Z,60.48
2022-12-20T12:14:36.628Z,62.02
2022-12-20T12:19:49.501Z,62.62
2022-12-20T12:24:55.427Z,63.21
2022-12-20T12:30:00.227Z,64.23
2022-12-20T12:35:22.854Z,64.24
2022-12-20T12:40:53.165Z,64.73
2022-12-20T12:45:59.780Z,65.37
2022-12-20T12:51:10.845Z,65.45
2022-12-20T12:56:45.455Z,65.70
2022-12-20T13:01:51.829Z,66.45
2022-12-20T13:07:25.181Z,66.20
2022-12-20T13:12:57.226Z,66.16
2022-12-20T13:18:01.453Z,66.21
2022-12-20T13:23:17.579Z,66.36
2022-12-20T13:28:45.901Z,66.60
2022-12-20T13:33:51.832Z,66.62
2022-12-20T13:38:59.895Z,66.37
2022-12-20T13:44:22.877Z,66.50
2022-12-20T13:49:29.731Z,66.75
2022-12-20T13:54:34.769Z,66.70
2022-12-20T13:59:38.107Z,66.48
2022-12-20T14:04:44.558Z,67.08
2022-12-20T14:09:57.762Z,67.16
2022-12-20T14:15:01.390Z,67.00
2022-12-20T14:20:08.013Z,67.29
2022-12-20T14:25:15.941Z,66.61
2022-12-20T14:30:34.191Z,66.97
2022-12-20T14:35:37.524Z,67.43
2022-12-20T14:40:46.674Z,67.27
2022-12-20T14:46:09.757Z,68.04
2022-12-20T14:51:14.985Z,67.92
2022-12-20T14:56:27.914Z,68.36
2022-12-20T15:01:40.084Z,69.31
2022-12-20T15:06:48.275Z,69.27
2022-12-20T15:11:53.630Z,69.64
2022-12-20T15:16:58.477Z,69.28
2022-12-20T15:22:02.044Z,69.78
2022-12-20T15:27:13.682Z,69.67
2022-12-20T15:32:25.666Z,69.65
2022-12-20T15:37:29.075Z,70.64
2022-12-20T15:42:33.856Z,70.68
2022-12-20T15:47:37.231Z,70.62
2022-12-20T15:52:40.634Z,69.82
2022-12-20T15:57:45.355Z,70.23
2022-12-20T16:02:51.781Z,70.04
2022-12-20T16:07:55.589Z,70.37
2022-12-20T16:13:00.226Z,70.29
2022-12-20T16:18:03.527Z,70.34
2022-12-20T16:23:07.730Z,70.53
2022-12-20T16:28:12.328Z,70.71
2022-12-20T16:33:21.263Z,70.38
2022-12-20T16:38:24.753Z,70.78
2022-12-20T16:43:32.781Z,70.59
2022-12-20T16:48:40.379Z,70.83
2022-12-20T16:54:17.222Z,70.35
2022-12-20T16:59:19.154Z,70.86
2022-12-20T17:04:26.347Z,70.71
2022-12-20T17:14:51.566Z,71.95
2022-12-20T17:19:54.921Z,72.33
2022-12-20T17:24:58.366Z,72.88
2022-12-20T17:30:03.168Z,73.04
2022-12-20T17:35:08.379Z,73.67
2022-12-20T17:40:14.709Z,73.97
2022-12-20T17:45:26.761Z,75.34
2022-12-20T17:50:30.436Z,75.67
2022-12-20T17:55:33.831Z,74.46
2022-12-20T18:00:39.484Z,73.49
2022-12-20T18:05:43.085Z,73.03
2022-12-20T18:10:47.121Z,73.45
2022-12-20T18:15:54.098Z,73.38
2022-12-20T18:21:03.355Z,74.09
2022-12-20T18:26:15.278Z,74.46
2022-12-20T18:31:21.902Z,74.36
2022-12-20T18:36:27.624Z,74.72
2022-12-20T18:41:34.699Z,74.22
2022-12-20T18:46:39.523Z,73.32
2022-12-20T18:51:43.962Z,72.71
2022-12-20T18:56:47.269Z,72.23
2022-12-20T19:01:52.902Z,71.96
2022-12-20T19:06:56.362Z,72.00
2022-12-20T19:11:59.709Z,71.31
2022-12-20T19:17:04.620Z,71.64
2022-12-20T19:22:07.896Z,70.75
2022-12-20T19:27:11.369Z,70.96
2022-12-20T19:32:16.823Z,70.45
2022-12-20T19:37:20.293Z,71.06
2022-12-20T19:42:25.127Z,70.89
2022-12-20T19:47:33.245Z,71.41
2022-12-20T19:52:36.921Z,71.47
2022-12-20T19:57:40.306Z,71.24
2022-12-20T20:02:45.239Z,71.29
2022-12-20T20:07:48.576Z,71.46
2022-12-20T20:12:51.914Z,71.62
2022-12-20T20:17:58.590Z,72.07
2022-12-20T20:23:02.099Z,72.43
2022-12-20T20:28:06.212Z,72.43
2022-12-20T20:33:12.323Z,73.29
2022-12-20T20:38:15.614Z,73.13
2022-12-20T20:43:19.930Z,73.70
2022-12-20T20:48:24.735Z,73.54
2022-12-20T20:53:33.568Z,72.91
2022-12-20T20:58:37.880Z,72.52
2022-12-20T21:03:43.151Z,72.34
2022-12-20T21:08:46.473Z,71.68
2022-12-20T21:13:49.774Z,71.41
2022-12-20T21:18:55.590Z,72.07
2022-12-20T21:23:58.918Z,71.52
2022-12-20T21:29:02.399Z,71.59
2022-12-20T21:34:07.258Z,71.71
2022-12-20T21:39:13.839Z,71.60
2022-12-20T21:44:17.433Z,71.55
2022-12-20T21:49:22.363Z,71.61
2022-12-20T21:54:25.793Z,71.43
2022-12-20T21:59:29.122Z,71.08
2022-12-20T22:04:35.888Z,71.24
2022-12-20T22:09:39.585Z,70.95
2022-12-20T22:14:42.802Z,71.06
2022-12-20T22:19:47.508Z,71.36
2022-12-20T22:24:50.782Z,71.04
2022-12-20T22:29:54.018Z,71.68
2022-12-20T22:34:58.757Z,71.52
2022-12-20T22:40:02.208Z,71.89
2022-12-20T22:45:07.594Z,71.24
2022-12-20T22:50:12.829Z,71.82
2022-12-20T22:55:16.261Z,71.35
2022-12-20T23:00:19.890Z,71.40
2022-12-20T23:05:24.560Z,71.55
2022-12-20T23:10:45.317Z,71.43
2022-12-20T23:15:49.812Z,71.20
2022-12-20T23:21:12.220Z,71.24
2022-12-20T23:26:17.348Z,71.38
2022-12-20T23:31:20.745Z,71.61
2022-12-20T23:36:25.391Z,71.68
2022-12-20T23:41:29.083Z,71.62
2022-12-20T23:46:32.457Z,71.27
2022-12-20T23:51:37.269Z,71.16
2022-12-20T23:56:40.693Z,71.39
